createdAt,value
2019-05-29T00:00:36.951Z,3.90
2019-05-29T00:01:36.920Z,3.60
2019-05-29T00:02:36.902Z,3.60
2019-05-29T00:03:36.920Z,5.20
2019-05-29T00:04:36.865Z,5.30
2019-05-29T00:05:36.847Z,3.50
2019-05-29T00:06:36.834Z,4.00
2019-05-29T00:07:36.809Z,5.10
2019-05-29T00:08:36.788Z,3.80
2019-05-29T00:09:36.794Z,5.40
2019-05-29T00:10:36.752Z,5.60
2019-05-29T00:11:36.737Z,4.30
2019-05-29T00:12:36.746Z,3.00
2019-05-29T00:13:36.720Z,3.70
2019-05-29T00:14:36.682Z,4.50
2019-05-29T00:15:36.660Z,2.70
2019-05-29T00:16:36.660Z,3.80
2019-05-29T00:17:36.652Z,2.80
2019-05-29T00:18:36.615Z,3.20
2019-05-29T00:19:36.585Z,2.90
2019-05-29T00:20:36.568Z,2.80
2019-05-29T00:21:36.555Z,3.40
2019-05-29T00:22:36.530Z,3.70
2019-05-29T00:23:36.535Z,5.60
2019-05-29T00:24:36.492Z,4.00
2019-05-29T00:25:36.488Z,3.70
2019-05-29T00:26:36.456Z,4.20
2019-05-29T00:27:36.440Z,2.80
2019-05-29T00:28:36.440Z,3.10
2019-05-29T00:29:36.399Z,3.30
2019-05-29T00:30:36.409Z,4.30
2019-05-29T00:31:36.372Z,5.10
2019-05-29T00:32:36.870Z,2.80
2019-05-29T00:33:36.355Z,2.20
2019-05-29T00:34:36.335Z,1.60
2019-05-29T00:35:36.291Z,2.60
2019-05-29T00:36:36.286Z,3.20
2019-05-29T00:37:36.253Z,2.20
2019-05-29T00:38:36.259Z,2.10
2019-05-29T00:39:36.214Z,2.80
2019-05-29T00:40:36.195Z,1.90
2019-05-29T00:41:36.176Z,3.80
2019-05-29T00:42:36.162Z,1.70
2019-05-29T00:43:36.176Z,1.50
2019-05-29T00:44:36.125Z,2.80
2019-05-29T00:45:36.105Z,1.60
2019-05-29T00:46:36.107Z,2.00
2019-05-29T00:47:36.067Z,3.10
2019-05-29T00:48:36.047Z,1.60
2019-05-29T00:49:36.043Z,2.20
2019-05-29T00:50:36.010Z,1.70
2019-05-29T00:51:35.991Z,3.50
2019-05-29T00:52:36.008Z,1.90
2019-05-29T00:53:35.955Z,2.40
2019-05-29T00:54:35.962Z,2.00
2019-05-29T00:55:35.918Z,2.40
2019-05-29T00:56:35.922Z,2.10
2019-05-29T00:57:35.879Z,1.90
2019-05-29T00:58:35.880Z,3.10
2019-05-29T00:59:35.843Z,3.30
2019-05-29T01:00:35.831Z,2.60
2019-05-29T01:01:35.805Z,2.40
2019-05-29T01:02:35.809Z,1.80
2019-05-29T01:03:35.769Z,1.80
2019-05-29T01:04:35.765Z,2.60
2019-05-29T01:05:35.757Z,2.60
2019-05-29T01:06:35.740Z,2.80
2019-05-29T01:07:35.697Z,1.80
2019-05-29T01:08:35.679Z,2.80
2019-05-29T01:09:35.683Z,2.50
2019-05-29T01:10:35.660Z,2.10
2019-05-29T01:11:35.641Z,2.10
2019-05-29T01:12:35.618Z,2.60
2019-05-29T01:13:35.587Z,1.40
2019-05-29T01:14:49.255Z,1.60
2019-05-29T01:15:35.564Z,2.20
2019-05-29T01:16:35.547Z,2.80
2019-05-29T01:17:35.506Z,4.60
2019-05-29T01:18:35.494Z,3.10
2019-05-29T01:19:35.474Z,2.70
2019-05-29T01:20:35.457Z,1.80
2019-05-29T01:21:35.464Z,3.90
2019-05-29T01:22:35.413Z,2.60
2019-05-29T01:23:35.395Z,2.80
2019-05-29T01:24:35.380Z,2.20
2019-05-29T01:28:58.409Z,3.70
2019-05-29T01:29:49.964Z,2.60
2019-05-29T01:30:51.606Z,3.60
2019-05-29T01:31:49.927Z,3.00
2019-05-29T01:32:49.907Z,2.70
2019-05-29T01:33:49.915Z,2.80
2019-05-29T01:34:49.874Z,2.80
2019-05-29T01:35:49.867Z,3.70
2019-05-29T01:36:49.833Z,3.00
2019-05-29T01:37:49.812Z,2.30
2019-05-29T01:38:49.803Z,2.60
2019-05-29T01:39:49.807Z,2.50
2019-05-29T01:40:49.769Z,3.30
2019-05-29T01:41:49.730Z,3.00
2019-05-29T01:42:50.160Z,4.00
2019-05-29T01:43:49.696Z,2.90
2019-05-29T01:45:03.837Z,4.10
2019-05-29T01:45:49.660Z,4.00
2019-05-29T01:46:49.658Z,3.20
2019-05-29T01:47:49.623Z,4.30
2019-05-29T01:48:49.630Z,3.20
2019-05-29T01:49:49.582Z,4.20
2019-05-29T01:50:49.565Z,4.80
2019-05-29T01:51:49.543Z,3.80
2019-05-29T01:52:49.541Z,3.40
2019-05-29T01:53:49.506Z,3.50
2019-05-29T01:54:49.490Z,3.80
2019-05-29T01:55:49.468Z,4.20
2019-05-29T01:56:49.471Z,3.70
2019-05-29T01:57:49.449Z,4.50
2019-05-29T01:58:49.410Z,5.20
2019-05-29T01:59:49.397Z,3.40
2019-05-29T02:00:49.381Z,4.80
2019-05-29T02:01:49.357Z,3.90
2019-05-29T02:02:49.345Z,4.80
2019-05-29T02:03:49.346Z,4.10
2019-05-29T02:04:49.301Z,3.50
2019-05-29T02:05:49.278Z,3.80
2019-05-29T02:06:49.267Z,4.60
2019-05-29T02:07:49.249Z,5.90
2019-05-29T02:08:49.226Z,4.10
2019-05-29T02:09:49.224Z,4.40
2019-05-29T02:10:49.206Z,5.00
2019-05-29T02:11:49.211Z,5.10
2019-05-29T02:12:49.154Z,5.60
2019-05-29T02:13:49.145Z,3.60
2019-05-29T02:14:49.106Z,4.10
2019-05-29T02:15:49.105Z,5.40
2019-05-29T02:16:49.085Z,4.90
2019-05-29T02:17:49.058Z,4.00
2019-05-29T02:18:49.043Z,3.50
2019-05-29T02:19:49.017Z,4.30
2019-05-29T02:20:49.014Z,3.90
2019-05-29T02:21:48.980Z,7.30
2019-05-29T02:22:48.960Z,6.70
2019-05-29T02:23:48.937Z,4.40
2019-05-29T02:24:48.916Z,3.60
2019-05-29T02:25:48.916Z,3.80
2019-05-29T02:26:48.883Z,4.60
2019-05-29T02:27:48.889Z,5.20
2019-05-29T02:28:48.845Z,4.10
2019-05-29T02:29:48.822Z,3.60
2019-05-29T02:30:48.832Z,3.90
2019-05-29T02:31:48.789Z,3.80
2019-05-29T02:32:48.779Z,3.80
2019-05-29T02:33:48.757Z,4.20
2019-05-29T02:34:48.730Z,4.90
2019-05-29T02:35:48.730Z,3.80
2019-05-29T02:36:48.689Z,3.50
2019-05-29T02:37:48.671Z,4.60
2019-05-29T02:38:48.657Z,4.50
2019-05-29T02:39:48.636Z,5.50
2019-05-29T02:40:48.627Z,5.40
2019-05-29T02:41:48.599Z,3.50
2019-05-29T02:42:48.578Z,6.60
2019-05-29T02:43:48.554Z,4.40
2019-05-29T02:44:48.539Z,4.30
2019-05-29T02:45:54.342Z,3.30
2019-05-29T02:46:48.518Z,6.80
2019-05-29T02:47:48.489Z,6.10
2019-05-29T02:48:48.470Z,3.60
2019-05-29T02:49:48.454Z,5.50
2019-05-29T02:50:48.420Z,3.70
2019-05-29T02:51:48.400Z,3.10
2019-05-29T02:52:48.388Z,3.90
2019-05-29T02:53:48.361Z,4.20
2019-05-29T02:54:48.357Z,5.00
2019-05-29T02:55:48.325Z,5.10
2019-05-29T02:56:48.309Z,4.00
2019-05-29T02:57:48.293Z,5.50
2019-05-29T02:58:48.296Z,4.80
2019-05-29T02:59:48.266Z,6.10
2019-05-29T03:00:48.230Z,4.90
2019-05-29T03:01:48.226Z,5.90
2019-05-29T03:02:48.188Z,4.40
2019-05-29T03:03:48.173Z,5.10
2019-05-29T03:04:48.169Z,4.30
2019-05-29T03:05:48.184Z,4.50
2019-05-29T03:06:48.108Z,5.90
2019-05-29T03:07:48.147Z,6.20
2019-05-29T03:08:48.086Z,4.70
2019-05-29T03:09:48.124Z,4.80
2019-05-29T03:10:48.043Z,5.50
2019-05-29T03:11:48.018Z,4.70
2019-05-29T03:12:48.003Z,5.20
2019-05-29T03:13:47.975Z,5.20
2019-05-29T03:14:47.959Z,7.50
2019-05-29T03:15:47.956Z,5.40
2019-05-29T03:16:47.931Z,6.40
2019-05-29T03:17:47.971Z,4.80
2019-05-29T03:18:47.876Z,5.10
2019-05-29T03:19:47.862Z,4.40
2019-05-29T03:20:47.839Z,4.50
2019-05-29T03:21:47.836Z,4.80
2019-05-29T03:22:47.799Z,7.40
2019-05-29T03:23:47.939Z,4.80
2019-05-29T03:24:47.763Z,6.10
2019-05-29T03:25:47.741Z,4.60
2019-05-29T03:26:47.723Z,6.40
2019-05-29T03:27:47.700Z,4.70
2019-05-29T03:28:47.684Z,8.00
2019-05-29T03:29:47.684Z,6.00
2019-05-29T03:30:47.675Z,5.70
2019-05-29T03:31:48.694Z,6.30
2019-05-29T03:32:48.891Z,4.70
2019-05-29T03:33:50.368Z,4.60
2019-05-29T03:34:48.244Z,6.10
2019-05-29T03:35:48.630Z,4.10
2019-05-29T03:36:48.878Z,5.80
2019-05-29T03:37:47.508Z,4.80
2019-05-29T03:38:47.489Z,4.90
2019-05-29T03:39:47.473Z,4.40
2019-05-29T03:40:47.443Z,5.70
2019-05-29T03:41:47.448Z,5.20
2019-05-29T03:42:47.414Z,5.60
2019-05-29T03:43:47.390Z,6.60
2019-05-29T03:44:47.366Z,4.90
2019-05-29T03:45:47.351Z,6.00
2019-05-29T03:46:47.351Z,7.30
2019-05-29T03:47:47.324Z,5.30
2019-05-29T03:48:47.294Z,4.60
2019-05-29T03:49:47.288Z,4.60
2019-05-29T03:50:47.252Z,5.70
2019-05-29T03:51:47.268Z,7.80
2019-05-29T03:52:47.228Z,6.50
2019-05-29T03:53:47.200Z,5.70
2019-05-29T03:54:47.173Z,7.40
2019-05-29T03:55:47.163Z,5.10
2019-05-29T03:56:47.137Z,7.30
2019-05-29T03:57:47.142Z,10.00
2019-05-29T03:58:47.096Z,7.30
2019-05-29T03:59:47.099Z,8.00
2019-05-29T04:00:48.566Z,7.90
2019-05-29T04:01:47.038Z,7.60
2019-05-29T04:02:47.017Z,6.30
2019-05-29T04:03:47.000Z,8.80
2019-05-29T04:04:47.017Z,7.90
2019-05-29T04:05:46.955Z,6.00
2019-05-29T04:06:47.516Z,5.60
2019-05-29T04:07:46.922Z,6.40
2019-05-29T04:08:46.908Z,6.50
2019-05-29T04:09:46.882Z,5.50
2019-05-29T04:10:46.892Z,6.70
2019-05-29T04:11:46.851Z,6.00
2019-05-29T04:12:46.825Z,5.60
2019-05-29T04:13:46.814Z,5.40
2019-05-29T04:14:46.794Z,4.20
2019-05-29T04:15:46.780Z,6.20
2019-05-29T04:16:59.347Z,7.40
2019-05-29T04:17:46.731Z,8.20
2019-05-29T04:18:46.714Z,5.50
2019-05-29T04:19:46.711Z,6.60
2019-05-29T04:20:46.672Z,6.60
2019-05-29T04:21:46.655Z,6.60
2019-05-29T04:22:46.630Z,7.50
2019-05-29T04:23:46.623Z,7.60
2019-05-29T04:24:46.600Z,6.60
2019-05-29T04:25:46.590Z,5.80
2019-05-29T04:26:46.551Z,4.90
2019-05-29T04:27:46.537Z,6.30
2019-05-29T04:28:46.521Z,6.40
2019-05-29T04:29:46.507Z,4.50
2019-05-29T04:30:46.475Z,5.20
2019-05-29T04:31:46.480Z,6.40
2019-05-29T04:32:46.441Z,5.70
2019-05-29T04:33:46.414Z,6.70
2019-05-29T04:34:46.406Z,7.80
2019-05-29T04:35:46.379Z,6.10
2019-05-29T04:36:46.362Z,4.60
2019-05-29T04:37:46.358Z,6.90
2019-05-29T04:38:46.346Z,5.40
2019-05-29T04:39:46.308Z,3.50
2019-05-29T04:40:46.299Z,6.40
2019-05-29T04:41:46.266Z,5.00
2019-05-29T04:42:46.286Z,4.70
2019-05-29T04:43:46.227Z,4.80
2019-05-29T04:44:46.218Z,7.40
2019-05-29T04:45:46.194Z,4.70
2019-05-29T04:46:46.190Z,5.70
2019-05-29T04:47:46.151Z,4.60
2019-05-29T04:48:46.155Z,4.20
2019-05-29T04:49:46.127Z,4.10
2019-05-29T04:50:46.097Z,4.10
2019-05-29T04:51:46.100Z,4.80
2019-05-29T04:52:46.088Z,3.90
2019-05-29T04:53:46.042Z,3.60
2019-05-29T04:54:46.029Z,7.10
2019-05-29T04:55:46.017Z,6.20
2019-05-29T04:56:45.989Z,7.80
2019-05-29T04:57:46.004Z,4.10
2019-05-29T04:58:45.956Z,3.50
2019-05-29T04:59:45.936Z,3.60
2019-05-29T05:00:58.540Z,3.00
2019-05-29T05:01:45.899Z,4.40
2019-05-29T05:02:45.889Z,5.10
2019-05-29T05:03:45.895Z,5.20
2019-05-29T05:04:45.870Z,3.60
2019-05-29T05:05:45.826Z,4.40
2019-05-29T05:06:45.813Z,4.30
2019-05-29T05:07:45.806Z,3.30
2019-05-29T05:08:45.802Z,5.30
2019-05-29T05:09:45.761Z,3.90
2019-05-29T05:10:45.745Z,4.60
2019-05-29T05:11:45.732Z,4.20
2019-05-29T05:12:45.755Z,5.70
2019-05-29T05:13:45.705Z,3.40
2019-05-29T05:14:45.706Z,4.40
2019-05-29T05:15:45.650Z,4.00
2019-05-29T05:16:45.641Z,3.90
2019-05-29T05:17:45.626Z,3.90
2019-05-29T05:18:45.610Z,4.80
2019-05-29T05:19:45.586Z,3.50
2019-05-29T05:20:45.583Z,5.20
2019-05-29T05:21:45.548Z,4.70
2019-05-29T05:22:45.529Z,4.00
2019-05-29T05:23:45.514Z,5.00
2019-05-29T05:24:45.490Z,4.40
2019-05-29T05:25:45.477Z,5.20
2019-05-29T05:26:45.473Z,4.40
2019-05-29T05:27:45.444Z,3.70
2019-05-29T05:28:46.438Z,3.50
2019-05-29T05:29:45.435Z,5.00
2019-05-29T05:30:45.387Z,4.30
2019-05-29T05:31:45.405Z,6.80
2019-05-29T05:32:45.363Z,5.60
2019-05-29T05:33:45.340Z,5.20
2019-05-29T05:34:45.318Z,4.40
2019-05-29T05:35:45.298Z,5.40
2019-05-29T05:36:45.283Z,4.60
2019-05-29T05:37:45.285Z,5.40
2019-05-29T05:38:45.244Z,4.40
2019-05-29T05:39:45.228Z,5.80
2019-05-29T05:40:45.220Z,5.60
2019-05-29T05:41:45.539Z,6.10
2019-05-29T05:42:45.176Z,4.90
2019-05-29T05:43:45.179Z,4.80
2019-05-29T05:44:45.141Z,6.90
2019-05-29T05:45:45.123Z,5.30
2019-05-29T05:46:45.107Z,4.70
2019-05-29T05:47:56.884Z,3.70
2019-05-29T05:48:45.099Z,4.90
2019-05-29T05:49:45.079Z,3.70
2019-05-29T05:50:45.041Z,5.00
2019-05-29T05:51:45.027Z,4.70
2019-05-29T05:52:45.000Z,3.80
2019-05-29T05:53:44.984Z,4.30
2019-05-29T05:54:44.986Z,4.80
2019-05-29T05:55:44.949Z,3.90
2019-05-29T05:56:44.937Z,4.50
2019-05-29T05:57:44.915Z,3.70
2019-05-29T05:58:44.897Z,4.80
2019-05-29T05:59:44.877Z,6.20
2019-05-29T06:00:44.882Z,6.30
2019-05-29T06:01:44.860Z,4.00
2019-05-29T06:02:44.825Z,4.40
2019-05-29T06:03:44.808Z,4.00
2019-05-29T06:04:44.821Z,5.30
2019-05-29T06:05:44.775Z,4.20
2019-05-29T06:06:44.750Z,4.20
2019-05-29T06:07:44.737Z,5.90
2019-05-29T06:08:44.727Z,5.90
2019-05-29T06:09:44.712Z,4.90
2019-05-29T06:10:44.700Z,6.30
2019-05-29T06:11:44.664Z,4.20
2019-05-29T06:12:44.651Z,6.00
2019-05-29T06:13:44.646Z,3.70
2019-05-29T06:14:44.614Z,4.70
2019-05-29T06:15:44.594Z,4.50
2019-05-29T06:16:44.581Z,6.80
2019-05-29T06:18:04.774Z,4.40
2019-05-29T06:18:44.547Z,4.90
2019-05-29T06:19:44.524Z,4.00
2019-05-29T06:20:44.581Z,4.10
2019-05-29T06:21:44.503Z,4.70
2019-05-29T06:22:44.472Z,5.90
2019-05-29T06:23:44.482Z,4.60
2019-05-29T06:24:44.447Z,6.90
2019-05-29T06:25:44.471Z,4.70
2019-05-29T06:26:44.405Z,5.60
2019-05-29T06:27:44.389Z,5.20
2019-05-29T06:28:44.379Z,4.10
2019-05-29T06:29:44.379Z,5.70
2019-05-29T06:30:45.083Z,6.00
2019-05-29T06:31:44.335Z,4.80
2019-05-29T06:32:44.303Z,5.00
2019-05-29T06:33:44.285Z,4.40
2019-05-29T06:34:44.291Z,4.70
2019-05-29T06:35:44.256Z,3.40
2019-05-29T06:36:47.874Z,4.30
2019-05-29T06:37:44.215Z,5.10
2019-05-29T06:38:44.565Z,4.70
2019-05-29T06:39:44.183Z,6.10
2019-05-29T06:40:44.182Z,4.70
2019-05-29T06:41:44.400Z,5.50
2019-05-29T06:42:44.133Z,4.70
2019-05-29T06:43:44.492Z,3.90
2019-05-29T06:44:47.377Z,6.90
2019-05-29T06:45:44.173Z,6.40
2019-05-29T06:46:45.322Z,5.00
2019-05-29T06:47:44.622Z,3.60
2019-05-29T06:48:56.297Z,3.20
2019-05-29T06:49:44.396Z,3.80
2019-05-29T06:50:43.996Z,5.50
2019-05-29T06:51:43.996Z,4.00
2019-05-29T06:52:43.960Z,3.80
2019-05-29T06:53:44.195Z,3.50
2019-05-29T06:54:44.173Z,5.20
2019-05-29T06:55:44.074Z,2.70
2019-05-29T06:56:43.905Z,4.30
2019-05-29T06:57:44.438Z,4.60
2019-05-29T06:58:44.320Z,5.00
2019-05-29T06:59:44.705Z,5.00
2019-05-29T07:00:44.876Z,4.20
2019-05-29T07:01:43.817Z,4.10
2019-05-29T07:02:44.876Z,5.30
2019-05-29T07:03:44.104Z,4.60
2019-05-29T07:04:44.626Z,3.90
2019-05-29T07:05:46.721Z,2.60
2019-05-29T07:06:44.802Z,4.50
2019-05-29T07:07:44.492Z,4.00
2019-05-29T07:08:47.843Z,3.20
2019-05-29T07:09:43.666Z,5.00
2019-05-29T07:10:44.599Z,4.40
2019-05-29T07:11:43.640Z,3.20
2019-05-29T07:12:44.493Z,3.00
2019-05-29T07:13:47.079Z,3.90
2019-05-29T07:14:44.546Z,4.30
2019-05-29T07:15:45.671Z,4.00
2019-05-29T07:16:53.195Z,3.30
2019-05-29T07:17:44.476Z,3.60
2019-05-29T07:19:22.417Z,3.60
2019-05-29T07:19:55.138Z,6.10
2019-05-29T07:20:43.494Z,2.80
2019-05-29T07:21:44.924Z,4.30
2019-05-29T07:22:43.460Z,4.50
2019-05-29T07:23:45.132Z,3.20
2019-05-29T07:24:43.550Z,5.90
2019-05-29T07:25:43.414Z,3.80
2019-05-29T07:26:43.857Z,4.60
2019-05-29T07:27:43.376Z,4.30
2019-05-29T07:29:03.069Z,4.80
2019-05-29T07:29:43.570Z,5.20
2019-05-29T07:30:49.721Z,5.00
2019-05-29T07:31:43.303Z,3.40
2019-05-29T07:32:49.535Z,4.20
2019-05-29T07:33:43.328Z,3.40
2019-05-29T07:34:58.128Z,3.80
2019-05-29T07:35:43.612Z,5.60
2019-05-29T07:36:44.036Z,4.00
2019-05-29T07:37:43.814Z,4.40
2019-05-29T07:38:46.116Z,4.30
2019-05-29T07:39:43.594Z,3.60
2019-05-29T07:40:45.121Z,3.60
2019-05-29T07:41:43.659Z,3.80
2019-05-29T07:42:49.848Z,3.80
2019-05-29T07:43:43.854Z,3.40
2019-05-29T07:44:44.051Z,4.50
2019-05-29T07:45:44.080Z,5.20
2019-05-29T07:46:45.111Z,3.00
2019-05-29T07:47:44.601Z,4.40
2019-05-29T07:48:45.670Z,3.80
2019-05-29T07:49:45.303Z,2.90
2019-05-29T07:50:44.109Z,3.00
2019-05-29T07:51:43.701Z,5.40
2019-05-29T07:52:44.129Z,3.30
2019-05-29T07:53:42.933Z,4.10
2019-05-29T07:54:43.778Z,3.90
2019-05-29T07:55:42.905Z,4.20
2019-05-29T07:56:42.878Z,4.10
2019-05-29T07:57:42.928Z,4.10
2019-05-29T07:58:48.976Z,2.90
2019-05-29T07:59:42.850Z,4.00
2019-05-29T08:01:06.927Z,4.40
2019-05-29T08:01:42.951Z,4.80
2019-05-29T08:02:43.334Z,3.40
2019-05-29T08:03:43.519Z,4.30
2019-05-29T08:04:43.092Z,2.90
2019-05-29T08:05:46.219Z,4.00
2019-05-29T08:06:49.754Z,2.60
2019-05-29T08:07:43.426Z,4.30
2019-05-29T08:08:43.210Z,3.90
2019-05-29T08:09:43.618Z,3.20
2019-05-29T08:10:43.429Z,2.80
2019-05-29T08:11:43.558Z,3.70
2019-05-29T08:12:48.512Z,3.90
2019-05-29T08:13:43.623Z,5.80
2019-05-29T08:14:43.718Z,2.80
2019-05-29T08:15:54.091Z,3.20
2019-05-29T08:16:43.934Z,2.30
2019-05-29T08:17:43.939Z,3.50
2019-05-29T08:18:46.129Z,5.90
2019-05-29T08:20:00.583Z,4.40
2019-05-29T08:20:42.483Z,2.80
2019-05-29T08:21:42.725Z,2.20
2019-05-29T08:22:42.505Z,3.10
2019-05-29T08:23:42.434Z,4.50
2019-05-29T08:24:42.658Z,3.90
2019-05-29T08:25:43.451Z,2.50
2019-05-29T08:26:42.916Z,4.20
2019-05-29T08:27:42.694Z,2.10
2019-05-29T08:28:42.783Z,3.10
2019-05-29T08:29:42.585Z,3.30
2019-05-29T08:30:47.375Z,2.70
2019-05-29T08:31:42.754Z,5.90
2019-05-29T08:32:43.652Z,6.70
2019-05-29T08:33:42.838Z,3.30
2019-05-29T08:34:43.041Z,2.50
2019-05-29T08:35:43.074Z,2.90
2019-05-29T08:37:00.813Z,3.70
2019-05-29T08:37:42.847Z,1.40
2019-05-29T08:38:44.160Z,2.00
2019-05-29T08:39:43.227Z,1.90
2019-05-29T08:40:43.009Z,1.70
2019-05-29T08:41:47.760Z,2.10
2019-05-29T08:42:43.110Z,2.50
2019-05-29T08:43:42.506Z,1.40
2019-05-29T08:44:43.278Z,1.60
2019-05-29T08:45:43.379Z,2.00
2019-05-29T08:47:00.663Z,4.30
2019-05-29T08:47:42.036Z,4.40
2019-05-29T08:48:42.044Z,5.40
2019-05-29T08:49:42.004Z,2.60
2019-05-29T08:50:42.026Z,4.20
2019-05-29T08:51:41.977Z,2.90
2019-05-29T08:52:41.961Z,3.10
2019-05-29T08:53:42.541Z,2.60
2019-05-29T08:54:42.083Z,2.20
2019-05-29T08:55:42.078Z,3.30
2019-05-29T08:56:42.274Z,2.40
2019-05-29T08:57:42.563Z,3.10
2019-05-29T08:58:42.888Z,2.90
2019-05-29T08:59:42.140Z,2.80
2019-05-29T09:00:46.579Z,2.30
2019-05-29T09:01:42.806Z,1.90
2019-05-29T09:02:42.561Z,3.90
2019-05-29T09:03:42.779Z,3.30
2019-05-29T09:04:43.028Z,3.40
2019-05-29T09:05:42.454Z,3.90
2019-05-29T09:06:42.999Z,3.30
2019-05-29T09:07:43.359Z,2.20
2019-05-29T09:08:43.396Z,2.80
2019-05-29T09:09:42.900Z,2.90
2019-05-29T09:10:43.135Z,3.20
2019-05-29T09:11:42.954Z,2.60
2019-05-29T09:12:45.620Z,2.50
2019-05-29T09:13:41.625Z,4.00
2019-05-29T09:14:41.607Z,3.10
2019-05-29T09:15:41.601Z,2.60
2019-05-29T09:16:41.590Z,3.20
2019-05-29T09:17:41.571Z,3.60
2019-05-29T09:18:41.581Z,3.10
2019-05-29T09:19:41.536Z,4.00
2019-05-29T09:21:00.823Z,2.30
2019-05-29T09:21:41.513Z,2.60
2019-05-29T09:22:41.493Z,1.70
2019-05-29T09:23:41.486Z,2.40
2019-05-29T09:24:41.487Z,3.40
2019-05-29T09:25:41.454Z,1.90
2019-05-29T09:26:41.442Z,2.20
2019-05-29T09:27:41.431Z,4.00
2019-05-29T09:28:41.416Z,2.70
2019-05-29T09:29:41.411Z,2.50
2019-05-29T09:30:41.410Z,4.00
2019-05-29T09:31:41.397Z,2.60
2019-05-29T09:32:50.056Z,2.50
2019-05-29T09:33:41.356Z,2.50
2019-05-29T09:34:41.346Z,3.10
2019-05-29T09:35:41.335Z,3.70
2019-05-29T09:36:41.344Z,2.60
2019-05-29T09:37:41.336Z,3.80
2019-05-29T09:38:41.347Z,3.20
2019-05-29T09:39:41.295Z,2.50
2019-05-29T09:40:41.279Z,2.70
2019-05-29T09:41:41.293Z,2.20
2019-05-29T09:42:41.256Z,3.00
2019-05-29T09:43:57.618Z,3.70
2019-05-29T09:44:41.243Z,3.80
2019-05-29T09:45:41.236Z,2.50
2019-05-29T09:46:41.217Z,2.70
2019-05-29T09:47:41.225Z,3.40
2019-05-29T09:48:49.635Z,2.30
2019-05-29T09:49:41.209Z,3.60
2019-05-29T09:50:50.037Z,3.50
2019-05-29T09:51:41.167Z,3.70
2019-05-29T09:52:41.169Z,3.40
2019-05-29T09:53:41.165Z,5.00
2019-05-29T09:54:41.146Z,3.50
2019-05-29T09:55:41.163Z,5.80
2019-05-29T09:56:41.125Z,4.60
2019-05-29T09:57:41.112Z,4.00
2019-05-29T09:58:41.104Z,3.80
2019-05-29T09:59:41.096Z,4.10
2019-05-29T10:00:41.105Z,3.80
2019-05-29T10:01:41.171Z,1.90
2019-05-29T10:02:41.115Z,4.00
2019-05-29T10:03:41.053Z,4.80
2019-05-29T10:04:41.048Z,3.40
2019-05-29T10:05:41.037Z,3.10
2019-05-29T10:06:41.058Z,3.00
2019-05-29T10:07:41.028Z,2.70
2019-05-29T10:08:41.013Z,4.80
2019-05-29T10:09:41.008Z,3.60
2019-05-29T10:10:41.026Z,2.70
2019-05-29T10:11:40.984Z,3.10
2019-05-29T10:12:40.992Z,4.00
2019-05-29T10:13:40.962Z,4.50
2019-05-29T10:14:40.957Z,2.60
2019-05-29T10:15:40.947Z,3.20
2019-05-29T10:16:40.944Z,1.50
2019-05-29T10:17:40.919Z,2.50
2019-05-29T10:18:40.951Z,1.80
2019-05-29T10:19:40.917Z,3.00
2019-05-29T10:20:40.896Z,2.40
2019-05-29T10:21:41.457Z,2.60
2019-05-29T10:22:40.877Z,2.50
2019-05-29T10:23:40.869Z,3.40
2019-05-29T10:24:40.870Z,2.70
2019-05-29T10:25:40.846Z,2.50
2019-05-29T10:26:40.850Z,4.30
2019-05-29T10:27:40.842Z,2.50
2019-05-29T10:28:57.497Z,2.70
2019-05-29T10:29:40.812Z,1.60
2019-05-29T10:30:42.263Z,2.30
2019-05-29T10:31:42.103Z,2.10
2019-05-29T10:32:42.418Z,2.40
2019-05-29T10:33:42.248Z,3.70
2019-05-29T10:34:42.156Z,2.20
2019-05-29T10:35:40.743Z,3.10
2019-05-29T10:36:40.739Z,1.40
2019-05-29T10:37:40.730Z,3.90
2019-05-29T10:38:40.736Z,3.20
2019-05-29T10:39:40.706Z,3.70
2019-05-29T10:40:40.722Z,3.50
2019-05-29T10:41:40.695Z,2.40
2019-05-29T10:42:40.679Z,2.10
2019-05-29T10:43:40.670Z,1.60
2019-05-29T10:44:40.672Z,1.90
2019-05-29T10:45:40.641Z,2.00
2019-05-29T10:46:40.633Z,3.20
2019-05-29T10:47:40.618Z,2.30
2019-05-29T10:48:40.620Z,1.20
2019-05-29T10:49:40.590Z,3.30
2019-05-29T10:50:40.582Z,3.00
2019-05-29T10:51:58.040Z,1.30
2019-05-29T10:52:40.568Z,1.90
2019-05-29T10:53:40.551Z,1.70
2019-05-29T10:54:40.551Z,1.70
2019-05-29T10:55:40.529Z,3.40
2019-05-29T10:56:40.518Z,2.80
2019-05-29T10:57:40.512Z,1.50
2019-05-29T10:58:49.584Z,2.00
2019-05-29T10:59:40.499Z,2.70
2019-05-29T11:00:40.479Z,1.30
2019-05-29T11:01:40.461Z,1.70
2019-05-29T11:02:40.489Z,2.40
2019-05-29T11:03:40.443Z,3.60
2019-05-29T11:04:40.425Z,2.80
2019-05-29T11:05:40.416Z,2.70
2019-05-29T11:06:41.266Z,3.50
2019-05-29T11:07:40.395Z,2.80
2019-05-29T11:08:40.420Z,2.20
2019-05-29T11:09:44.532Z,1.40
2019-05-29T11:10:40.359Z,2.90
2019-05-29T11:11:40.356Z,3.70
2019-05-29T11:12:40.344Z,3.30
2019-05-29T11:13:40.343Z,2.10
2019-05-29T11:14:40.312Z,2.30
2019-05-29T11:15:40.315Z,2.80
2019-05-29T11:16:40.290Z,2.20
2019-05-29T11:17:40.280Z,2.50
2019-05-29T11:18:40.265Z,1.40
2019-05-29T11:19:40.281Z,3.00
2019-05-29T11:20:40.241Z,2.90
2019-05-29T11:21:40.242Z,2.00
2019-05-29T11:22:40.227Z,1.70
2019-05-29T11:23:40.217Z,2.90
2019-05-29T11:24:40.221Z,1.50
2019-05-29T11:25:40.198Z,2.10
2019-05-29T11:26:40.169Z,2.00
2019-05-29T11:27:40.179Z,2.70
2019-05-29T11:28:40.150Z,2.70
2019-05-29T11:29:40.142Z,2.30
2019-05-29T11:30:40.134Z,3.50
2019-05-29T11:31:40.120Z,2.60
2019-05-29T11:32:40.119Z,1.30
2019-05-29T11:33:40.094Z,3.10
2019-05-29T11:34:40.082Z,3.80
2019-05-29T11:35:56.871Z,1.90
2019-05-29T11:36:40.059Z,2.20
2019-05-29T11:37:40.074Z,2.20
2019-05-29T11:38:40.046Z,1.70
2019-05-29T11:39:40.027Z,1.70
2019-05-29T11:40:40.125Z,2.10
2019-05-29T11:41:40.007Z,1.70
2019-05-29T11:42:39.992Z,2.20
2019-05-29T11:43:40.017Z,1.70
2019-05-29T11:44:39.975Z,2.20
2019-05-29T11:45:39.959Z,2.40
2019-05-29T11:46:39.957Z,1.40
2019-05-29T11:47:39.946Z,2.90
2019-05-29T11:48:39.919Z,1.10
2019-05-29T11:49:39.931Z,1.40
2019-05-29T11:50:39.896Z,1.50
2019-05-29T11:51:44.118Z,1.20
2019-05-29T11:52:43.041Z,3.60
2019-05-29T11:53:39.869Z,1.40
2019-05-29T11:54:39.846Z,2.20
2019-05-29T11:55:39.853Z,1.90
2019-05-29T11:56:39.826Z,1.90
2019-05-29T11:57:39.892Z,1.40
2019-05-29T11:58:39.800Z,1.00
2019-05-29T11:59:39.796Z,1.50
2019-05-29T12:00:39.783Z,0.80
2019-05-29T12:01:50.183Z,1.40
2019-05-29T12:02:39.807Z,0.90
2019-05-29T12:04:05.237Z,1.70
2019-05-29T12:04:39.734Z,1.20
2019-05-29T12:05:39.725Z,0.70
2019-05-29T12:06:39.710Z,1.20
2019-05-29T12:07:39.721Z,1.80
2019-05-29T12:08:39.706Z,1.20
2019-05-29T12:09:39.716Z,0.90
2019-05-29T12:10:39.673Z,1.60
2019-05-29T12:11:39.676Z,3.00
2019-05-29T12:12:39.646Z,2.50
2019-05-29T12:13:39.650Z,1.10
2019-05-29T12:14:58.949Z,1.00
2019-05-29T12:15:39.604Z,0.90
2019-05-29T12:16:39.594Z,1.70
2019-05-29T12:17:40.046Z,1.70
2019-05-29T12:18:39.568Z,1.90
2019-05-29T12:19:39.608Z,0.90
2019-05-29T12:20:39.546Z,1.10
2019-05-29T12:21:42.567Z,1.00
2019-05-29T12:22:39.532Z,2.10
2019-05-29T12:23:39.515Z,0.90
2019-05-29T12:24:39.516Z,1.60
2019-05-29T12:25:39.495Z,1.30
2019-05-29T12:26:39.468Z,1.20
2019-05-29T12:27:39.457Z,2.00
2019-05-29T12:28:39.466Z,1.10
2019-05-29T12:29:39.451Z,1.00
2019-05-29T12:30:39.419Z,0.80
2019-05-29T12:31:39.423Z,1.20
2019-05-29T12:32:39.406Z,1.00
2019-05-29T12:33:39.411Z,1.20
2019-05-29T12:34:52.772Z,1.10
2019-05-29T12:35:39.362Z,1.60
2019-05-29T12:36:39.349Z,0.90
2019-05-29T12:37:39.351Z,1.20
2019-05-29T12:38:39.324Z,2.00
2019-05-29T12:39:39.417Z,1.20
2019-05-29T12:40:39.304Z,1.50
2019-05-29T12:41:39.433Z,1.90
2019-05-29T12:42:39.358Z,1.80
2019-05-29T12:43:39.264Z,2.10
2019-05-29T12:44:39.263Z,2.30
2019-05-29T12:45:39.253Z,2.20
2019-05-29T12:46:39.241Z,1.60
2019-05-29T12:47:39.242Z,1.70
2019-05-29T12:48:39.208Z,2.70
2019-05-29T12:49:39.191Z,1.50
2019-05-29T12:50:39.177Z,1.60
2019-05-29T12:51:39.163Z,1.80
2019-05-29T12:52:39.167Z,1.60
2019-05-29T12:53:39.145Z,1.60
2019-05-29T12:54:39.126Z,2.60
2019-05-29T12:55:39.114Z,1.40
2019-05-29T12:56:39.101Z,2.90
2019-05-29T12:57:39.113Z,1.90
2019-05-29T12:58:39.101Z,2.70
2019-05-29T12:59:39.084Z,1.80
2019-05-29T13:00:39.058Z,1.90
2019-05-29T13:01:39.058Z,3.10
2019-05-29T13:02:39.027Z,2.20
2019-05-29T13:03:39.017Z,2.90
2019-05-29T13:05:05.956Z,2.10
2019-05-29T13:05:39.015Z,2.20
2019-05-29T13:06:38.982Z,2.90
2019-05-29T13:07:39.007Z,2.30
2019-05-29T13:08:38.962Z,2.80
2019-05-29T13:09:38.958Z,4.50
2019-05-29T13:10:38.934Z,1.80
2019-05-29T13:11:38.919Z,1.30
2019-05-29T13:12:38.916Z,1.30
2019-05-29T13:13:38.914Z,3.30
2019-05-29T13:14:38.902Z,1.90
2019-05-29T13:15:38.877Z,2.90
2019-05-29T13:16:38.871Z,1.40
2019-05-29T13:17:38.858Z,2.30
2019-05-29T13:18:38.837Z,2.40
2019-05-29T13:19:38.877Z,1.40
2019-05-29T13:20:38.827Z,1.60
2019-05-29T13:21:38.824Z,1.80